DEMNG SCIR-SCEL
Flight info
| Callsign | DEMNG |
|---|---|
| Flight time | 2h 51m |
| Altitude | 7000 |
| Route | OSANI T118 TELAG |
| Aircraft | PA24/L-SDGRY/S |
Departure
| Time | 2026-04-23 10:00 |
|---|---|
| Airport | Robinson Crusoe Airport (SCIR) |
Arrival
| Time | 2026-04-23 12:51 |
|---|---|
| Airport | Comodoro Arturo Merino Benítez International Airport (SCEL) |
| Time | Latitude | Longitude | Altitude | Speed | Heading |
|---|---|---|---|---|---|
| 2026-04-23 09:54 | -33.66586 | -78.93006 | 384 ft | 0 kts | 330° |
| 2026-04-23 09:55 | -33.66588 | -78.93019 | 382 ft | 2 kts | 188° |
| 2026-04-23 09:55 | -33.66601 | -78.93004 | 383 ft | 5 kts | 92° |
| 2026-04-23 09:55 | -33.66606 | -78.92987 | 384 ft | 0 kts | 111° |
| 2026-04-23 09:56 | -33.66606 | -78.92986 | 384 ft | 1 kts | 111° |
| 2026-04-23 09:56 | -33.66603 | -78.92961 | 381 ft | 6 kts | 55° |
| 2026-04-23 09:56 | -33.66566 | -78.92940 | 380 ft | 11 kts | 326° |
| 2026-04-23 09:57 | -33.66498 | -78.92991 | 377 ft | 11 kts | 325° |
| 2026-04-23 09:57 | -33.66439 | -78.93038 | 372 ft | 10 kts | 322° |
| 2026-04-23 09:57 | -33.66418 | -78.93053 | 371 ft | 0 kts | 336° |
| 2026-04-23 09:58 | -33.66383 | -78.93072 | 369 ft | 15 kts | 330° |
| 2026-04-23 09:58 | -33.66282 | -78.93154 | 363 ft | 17 kts | 328° |
| 2026-04-23 09:58 | -33.66242 | -78.93169 | 363 ft | 4 kts | 138° |
| 2026-04-23 09:58 | -33.66267 | -78.93164 | 362 ft | 0 kts | 145° |
| 2026-04-23 09:59 | -33.66314 | -78.93122 | 366 ft | 36 kts | 143° |
| 2026-04-23 09:59 | -33.66670 | -78.92861 | 444 ft | 69 kts | 149° |
| 2026-04-23 09:59 | -33.66947 | -78.92642 | 587 ft | 75 kts | 149° |
| 2026-04-23 09:59 | -33.67403 | -78.92223 | 848 ft | 86 kts | 145° |
| 2026-04-23 10:00 | -33.67701 | -78.91611 | 1093 ft | 94 kts | 103° |
| 2026-04-23 10:00 | -33.67547 | -78.90818 | 1317 ft | 100 kts | 70° |
| 2026-04-23 10:00 | -33.67137 | -78.89820 | 1647 ft | 103 kts | 77° |
| 2026-04-23 10:00 | -33.66946 | -78.89027 | 1948 ft | 96 kts | 85° |
| 2026-04-23 10:01 | -33.66864 | -78.88486 | 2102 ft | 99 kts | 91° |
| 2026-04-23 10:01 | -33.66822 | -78.87676 | 2390 ft | 95 kts | 96° |
| 2026-04-23 10:01 | -33.66810 | -78.86872 | 2609 ft | 100 kts | 97° |
| 2026-04-23 10:01 | -33.66821 | -78.86050 | 2901 ft | 95 kts | 98° |
| 2026-04-23 10:02 | -33.66838 | -78.85247 | 3134 ft | 99 kts | 99° |
| 2026-04-23 10:02 | -33.66859 | -78.84438 | 3428 ft | 96 kts | 99° |
| 2026-04-23 10:02 | -33.66889 | -78.83627 | 3664 ft | 98 kts | 100° |
| 2026-04-23 10:02 | -33.66915 | -78.82816 | 3933 ft | 98 kts | 100° |
| 2026-04-23 10:03 | -33.66947 | -78.81994 | 4195 ft | 99 kts | 100° |
| 2026-04-23 10:03 | -33.66973 | -78.81164 | 4451 ft | 101 kts | 101° |
| 2026-04-23 10:03 | -33.67008 | -78.80323 | 4738 ft | 101 kts | 101° |
| 2026-04-23 10:03 | -33.67047 | -78.79470 | 5044 ft | 104 kts | 100° |
| 2026-04-23 10:04 | -33.67081 | -78.78602 | 5297 ft | 105 kts | 99° |
| 2026-04-23 10:04 | -33.67105 | -78.77713 | 5519 ft | 109 kts | 99° |
| 2026-04-23 10:04 | -33.67135 | -78.76816 | 5764 ft | 106 kts | 99° |
| 2026-04-23 10:04 | -33.67161 | -78.75932 | 6019 ft | 107 kts | 99° |
| 2026-04-23 10:05 | -33.67193 | -78.75032 | 6273 ft | 107 kts | 99° |
| 2026-04-23 10:05 | -33.67226 | -78.74134 | 6518 ft | 109 kts | 99° |
| 2026-04-23 10:05 | -33.67259 | -78.73224 | 6758 ft | 109 kts | 98° |
| 2026-04-23 10:05 | -33.67287 | -78.72312 | 6976 ft | 111 kts | 98° |
| 2026-04-23 10:06 | -33.67323 | -78.71327 | 7008 ft | 130 kts | 99° |
| 2026-04-23 10:06 | -33.67386 | -78.70162 | 6985 ft | 148 kts | 99° |
| 2026-04-23 10:06 | -33.67451 | -78.68883 | 6963 ft | 157 kts | 98° |
| 2026-04-23 10:06 | -33.67503 | -78.67543 | 6965 ft | 163 kts | 97° |
| 2026-04-23 10:07 | -33.67535 | -78.66173 | 6987 ft | 166 kts | 95° |
| 2026-04-23 10:07 | -33.67556 | -78.64776 | 6992 ft | 168 kts | 95° |
| 2026-04-23 10:07 | -33.67578 | -78.63371 | 6996 ft | 169 kts | 95° |
| 2026-04-23 10:07 | -33.67614 | -78.61955 | 6985 ft | 169 kts | 96° |
| 2026-04-23 10:08 | -33.67657 | -78.60548 | 6982 ft | 168 kts | 96° |
| 2026-04-23 10:08 | -33.67696 | -78.59152 | 6981 ft | 167 kts | 96° |
| 2026-04-23 10:08 | -33.67745 | -78.57758 | 6981 ft | 167 kts | 96° |
| 2026-04-23 10:09 | -33.67835 | -78.54975 | 6981 ft | 167 kts | 96° |
| 2026-04-23 10:09 | -33.67873 | -78.53580 | 6982 ft | 168 kts | 96° |
| 2026-04-23 10:09 | -33.67916 | -78.52191 | 6981 ft | 166 kts | 96° |
| 2026-04-23 10:09 | -33.67964 | -78.50806 | 6983 ft | 166 kts | 96° |
| 2026-04-23 10:10 | -33.68004 | -78.49414 | 6983 ft | 168 kts | 96° |
| 2026-04-23 10:10 | -33.68046 | -78.48020 | 6983 ft | 167 kts | 96° |
| 2026-04-23 10:10 | -33.68090 | -78.46628 | 6982 ft | 167 kts | 96° |
| 2026-04-23 10:10 | -33.68134 | -78.45237 | 6982 ft | 166 kts | 96° |
| 2026-04-23 10:11 | -33.68174 | -78.43844 | 6982 ft | 167 kts | 96° |
| 2026-04-23 10:11 | -33.68212 | -78.42454 | 6982 ft | 167 kts | 96° |
| 2026-04-23 10:11 | -33.68255 | -78.41064 | 6982 ft | 166 kts | 96° |
| 2026-04-23 10:11 | -33.68303 | -78.39669 | 6982 ft | 167 kts | 96° |
| 2026-04-23 10:12 | -33.68348 | -78.38280 | 6980 ft | 167 kts | 96° |
| 2026-04-23 10:12 | -33.68388 | -78.36908 | 6979 ft | 167 kts | 96° |
| 2026-04-23 10:12 | -33.68432 | -78.35518 | 6979 ft | 167 kts | 96° |
| 2026-04-23 10:12 | -33.68470 | -78.34121 | 6979 ft | 167 kts | 96° |
| 2026-04-23 10:13 | -33.68509 | -78.32729 | 6979 ft | 167 kts | 96° |
| 2026-04-23 10:13 | -33.68551 | -78.31339 | 6979 ft | 166 kts | 96° |
| 2026-04-23 10:13 | -33.68587 | -78.29948 | 6980 ft | 166 kts | 96° |
| 2026-04-23 10:13 | -33.68626 | -78.28553 | 6980 ft | 168 kts | 96° |
| 2026-04-23 10:14 | -33.68663 | -78.27157 | 6979 ft | 167 kts | 96° |
| 2026-04-23 10:14 | -33.68703 | -78.25764 | 6979 ft | 166 kts | 96° |
| 2026-04-23 10:14 | -33.68746 | -78.24379 | 6976 ft | 166 kts | 96° |
| 2026-04-23 10:14 | -33.68788 | -78.22989 | 6976 ft | 167 kts | 96° |
| 2026-04-23 10:15 | -33.68822 | -78.21597 | 6979 ft | 167 kts | 96° |
| 2026-04-23 10:15 | -33.68865 | -78.20202 | 6979 ft | 166 kts | 96° |
| 2026-04-23 10:15 | -33.68911 | -78.18810 | 6979 ft | 167 kts | 96° |
| 2026-04-23 10:15 | -33.68956 | -78.17420 | 6979 ft | 167 kts | 96° |
| 2026-04-23 10:16 | -33.68997 | -78.16030 | 6979 ft | 166 kts | 96° |
| 2026-04-23 10:16 | -33.69032 | -78.14658 | 6979 ft | 167 kts | 96° |
| 2026-04-23 10:16 | -33.69070 | -78.13243 | 6979 ft | 167 kts | 96° |
| 2026-04-23 10:16 | -33.69107 | -78.11870 | 6979 ft | 167 kts | 95° |
| 2026-04-23 10:17 | -33.69144 | -78.10484 | 6976 ft | 166 kts | 96° |
| 2026-04-23 10:17 | -33.69185 | -78.09091 | 6977 ft | 167 kts | 95° |
| 2026-04-23 10:17 | -33.69224 | -78.07695 | 6977 ft | 167 kts | 96° |
| 2026-04-23 10:17 | -33.69260 | -78.06301 | 6977 ft | 167 kts | 96° |
| 2026-04-23 10:18 | -33.69296 | -78.04910 | 6977 ft | 167 kts | 96° |
| 2026-04-23 10:18 | -33.69342 | -78.03517 | 6977 ft | 166 kts | 96° |
| 2026-04-23 10:18 | -33.69381 | -78.02124 | 6977 ft | 167 kts | 95° |
| 2026-04-23 10:18 | -33.69418 | -78.00730 | 6977 ft | 168 kts | 95° |
| 2026-04-23 10:19 | -33.69448 | -77.99332 | 6976 ft | 167 kts | 96° |
| 2026-04-23 10:19 | -33.69479 | -77.97940 | 6977 ft | 167 kts | 95° |
| 2026-04-23 10:19 | -33.69524 | -77.96551 | 6977 ft | 167 kts | 96° |
| 2026-04-23 10:19 | -33.69560 | -77.95157 | 6973 ft | 167 kts | 96° |
| 2026-04-23 10:20 | -33.69590 | -77.93764 | 6971 ft | 167 kts | 95° |
| 2026-04-23 10:20 | -33.69614 | -77.92369 | 6971 ft | 167 kts | 96° |
| 2026-04-23 10:20 | -33.69661 | -77.90994 | 6971 ft | 166 kts | 97° |
| 2026-04-23 10:20 | -33.69706 | -77.89595 | 6971 ft | 166 kts | 96° |
| 2026-04-23 10:21 | -33.69738 | -77.88225 | 6974 ft | 167 kts | 96° |
| 2026-04-23 10:21 | -33.69781 | -77.86831 | 6974 ft | 167 kts | 97° |
| 2026-04-23 10:21 | -33.69815 | -77.85437 | 6973 ft | 166 kts | 96° |
| 2026-04-23 10:21 | -33.69842 | -77.84046 | 6974 ft | 167 kts | 96° |
| 2026-04-23 10:22 | -33.69887 | -77.82662 | 6973 ft | 166 kts | 96° |
| 2026-04-23 10:22 | -33.69920 | -77.81269 | 6974 ft | 166 kts | 96° |
| 2026-04-23 10:22 | -33.69949 | -77.79878 | 6971 ft | 167 kts | 96° |
| 2026-04-23 10:22 | -33.69984 | -77.78482 | 6971 ft | 166 kts | 96° |
| 2026-04-23 10:23 | -33.70025 | -77.77095 | 6973 ft | 166 kts | 96° |
| 2026-04-23 10:23 | -33.70061 | -77.75707 | 6971 ft | 166 kts | 96° |
| 2026-04-23 10:23 | -33.70091 | -77.74320 | 6971 ft | 166 kts | 95° |
| 2026-04-23 10:23 | -33.70122 | -77.72932 | 6971 ft | 167 kts | 96° |
| 2026-04-23 10:24 | -33.70164 | -77.71539 | 6971 ft | 166 kts | 96° |
| 2026-04-23 10:24 | -33.70201 | -77.70144 | 6972 ft | 167 kts | 96° |
| 2026-04-23 10:24 | -33.70250 | -77.68752 | 6971 ft | 167 kts | 96° |
| 2026-04-23 10:24 | -33.70274 | -77.67361 | 6972 ft | 167 kts | 95° |
| 2026-04-23 10:25 | -33.70305 | -77.65965 | 6968 ft | 168 kts | 96° |
| 2026-04-23 10:25 | -33.70336 | -77.64568 | 6968 ft | 167 kts | 96° |
| 2026-04-23 10:25 | -33.70360 | -77.63176 | 6968 ft | 167 kts | 95° |
| 2026-04-23 10:25 | -33.70395 | -77.61785 | 6968 ft | 166 kts | 96° |
| 2026-04-23 10:26 | -33.70431 | -77.60390 | 6966 ft | 167 kts | 96° |
| 2026-04-23 10:26 | -33.70462 | -77.58995 | 6971 ft | 168 kts | 95° |
| 2026-04-23 10:26 | -33.70482 | -77.57594 | 6967 ft | 167 kts | 96° |
| 2026-04-23 10:26 | -33.70508 | -77.56195 | 6967 ft | 167 kts | 96° |
| 2026-04-23 10:27 | -33.70548 | -77.54804 | 6966 ft | 167 kts | 97° |
| 2026-04-23 10:27 | -33.70588 | -77.53409 | 6966 ft | 167 kts | 97° |
| 2026-04-23 10:27 | -33.70618 | -77.52015 | 6966 ft | 168 kts | 96° |
| 2026-04-23 10:27 | -33.70648 | -77.50614 | 6969 ft | 167 kts | 97° |
| 2026-04-23 10:28 | -33.70692 | -77.49234 | 6969 ft | 168 kts | 97° |
| 2026-04-23 10:28 | -33.70734 | -77.47823 | 6969 ft | 167 kts | 96° |
| 2026-04-23 10:28 | -33.70762 | -77.46446 | 6968 ft | 167 kts | 96° |
| 2026-04-23 10:28 | -33.70788 | -77.45046 | 6969 ft | 168 kts | 96° |
| 2026-04-23 10:29 | -33.70811 | -77.43622 | 6969 ft | 168 kts | 96° |
| 2026-04-23 10:29 | -33.70847 | -77.42239 | 6969 ft | 168 kts | 97° |
| 2026-04-23 10:29 | -33.70889 | -77.40847 | 6969 ft | 166 kts | 96° |
| 2026-04-23 10:29 | -33.70917 | -77.39452 | 6968 ft | 167 kts | 96° |
| 2026-04-23 10:30 | -33.70944 | -77.38055 | 6967 ft | 168 kts | 96° |
| 2026-04-23 10:30 | -33.70975 | -77.36657 | 6968 ft | 167 kts | 96° |
| 2026-04-23 10:30 | -33.71000 | -77.35265 | 6969 ft | 167 kts | 96° |
| 2026-04-23 10:30 | -33.71026 | -77.33871 | 6968 ft | 166 kts | 96° |
| 2026-04-23 10:31 | -33.71058 | -77.32479 | 6970 ft | 167 kts | 96° |
| 2026-04-23 10:31 | -33.71097 | -77.31085 | 6969 ft | 167 kts | 97° |
| 2026-04-23 10:31 | -33.71132 | -77.29687 | 6969 ft | 167 kts | 96° |
| 2026-04-23 10:31 | -33.71161 | -77.28290 | 6969 ft | 167 kts | 97° |
| 2026-04-23 10:32 | -33.71196 | -77.26901 | 6968 ft | 166 kts | 96° |
| 2026-04-23 10:32 | -33.71210 | -77.25509 | 6969 ft | 167 kts | 96° |
| 2026-04-23 10:32 | -33.71226 | -77.24116 | 6969 ft | 167 kts | 96° |
| 2026-04-23 10:32 | -33.71250 | -77.22714 | 6969 ft | 167 kts | 96° |
| 2026-04-23 10:33 | -33.71277 | -77.21318 | 6970 ft | 167 kts | 97° |
| 2026-04-23 10:33 | -33.71310 | -77.19933 | 6969 ft | 166 kts | 97° |
| 2026-04-23 10:33 | -33.71342 | -77.18543 | 6969 ft | 166 kts | 98° |
| 2026-04-23 10:33 | -33.71364 | -77.17154 | 6969 ft | 167 kts | 96° |
| 2026-04-23 10:34 | -33.71385 | -77.15761 | 6968 ft | 166 kts | 97° |
| 2026-04-23 10:34 | -33.71411 | -77.14374 | 6969 ft | 166 kts | 98° |
| 2026-04-23 10:34 | -33.71467 | -77.12987 | 6968 ft | 166 kts | 98° |
| 2026-04-23 10:34 | -33.71500 | -77.11600 | 6968 ft | 166 kts | 96° |
| 2026-04-23 10:35 | -33.71514 | -77.10207 | 6965 ft | 168 kts | 97° |
| 2026-04-23 10:35 | -33.71539 | -77.08812 | 6966 ft | 166 kts | 98° |
| 2026-04-23 10:35 | -33.71579 | -77.07426 | 6965 ft | 166 kts | 98° |
| 2026-04-23 10:35 | -33.71616 | -77.06047 | 6965 ft | 166 kts | 97° |
| 2026-04-23 10:36 | -33.71635 | -77.04658 | 6966 ft | 166 kts | 97° |
| 2026-04-23 10:36 | -33.71654 | -77.03282 | 6966 ft | 167 kts | 97° |
| 2026-04-23 10:36 | -33.71670 | -77.01889 | 6966 ft | 167 kts | 97° |
| 2026-04-23 10:36 | -33.71693 | -77.00494 | 6966 ft | 167 kts | 98° |
| 2026-04-23 10:37 | -33.71735 | -76.99107 | 6963 ft | 166 kts | 97° |
| 2026-04-23 10:37 | -33.71757 | -76.97718 | 6963 ft | 167 kts | 97° |
| 2026-04-23 10:37 | -33.71762 | -76.96315 | 6964 ft | 169 kts | 97° |
| 2026-04-23 10:37 | -33.71792 | -76.94910 | 6964 ft | 167 kts | 97° |
| 2026-04-23 10:38 | -33.71841 | -76.93521 | 6960 ft | 166 kts | 98° |
| 2026-04-23 10:38 | -33.71882 | -76.92136 | 6959 ft | 166 kts | 97° |
| 2026-04-23 10:38 | -33.71899 | -76.90744 | 6960 ft | 167 kts | 96° |
| 2026-04-23 10:38 | -33.71912 | -76.89345 | 6960 ft | 168 kts | 97° |
| 2026-04-23 10:39 | -33.71931 | -76.87944 | 6958 ft | 166 kts | 97° |
| 2026-04-23 10:39 | -33.71958 | -76.86554 | 6960 ft | 166 kts | 96° |
| 2026-04-23 10:39 | -33.71973 | -76.85180 | 6959 ft | 164 kts | 97° |
| 2026-04-23 10:39 | -33.72003 | -76.83805 | 6958 ft | 164 kts | 98° |
| 2026-04-23 10:40 | -33.72057 | -76.82434 | 6960 ft | 165 kts | 98° |
| 2026-04-23 10:40 | -33.72067 | -76.81055 | 6960 ft | 165 kts | 97° |
| 2026-04-23 10:40 | -33.72083 | -76.79676 | 6960 ft | 165 kts | 97° |
| 2026-04-23 10:40 | -33.72117 | -76.78301 | 6954 ft | 165 kts | 97° |
| 2026-04-23 10:41 | -33.72123 | -76.76917 | 6958 ft | 165 kts | 97° |
| 2026-04-23 10:41 | -33.72151 | -76.75557 | 6958 ft | 165 kts | 97° |
| 2026-04-23 10:41 | -33.72164 | -76.74177 | 6958 ft | 165 kts | 97° |
| 2026-04-23 10:41 | -33.72194 | -76.72798 | 6958 ft | 165 kts | 98° |
| 2026-04-23 10:42 | -33.72233 | -76.71426 | 6955 ft | 164 kts | 97° |
| 2026-04-23 10:42 | -33.72252 | -76.70051 | 6955 ft | 164 kts | 97° |
| 2026-04-23 10:42 | -33.72292 | -76.68674 | 6955 ft | 165 kts | 98° |
| 2026-04-23 10:42 | -33.72310 | -76.67293 | 6955 ft | 164 kts | 97° |
| 2026-04-23 10:43 | -33.72319 | -76.65918 | 6954 ft | 165 kts | 95° |
| 2026-04-23 10:43 | -33.72322 | -76.64543 | 6952 ft | 165 kts | 96° |
| 2026-04-23 10:43 | -33.72335 | -76.63162 | 6953 ft | 166 kts | 97° |
| 2026-04-23 10:43 | -33.72340 | -76.61781 | 6953 ft | 166 kts | 96° |
| 2026-04-23 10:44 | -33.72361 | -76.60395 | 6956 ft | 165 kts | 98° |
| 2026-04-23 10:44 | -33.72403 | -76.59015 | 6956 ft | 166 kts | 98° |
| 2026-04-23 10:44 | -33.72481 | -76.57641 | 6955 ft | 164 kts | 98° |
| 2026-04-23 10:44 | -33.72510 | -76.56266 | 6955 ft | 165 kts | 96° |
| 2026-04-23 10:45 | -33.72498 | -76.54884 | 6955 ft | 166 kts | 95° |
| 2026-04-23 10:45 | -33.72490 | -76.53496 | 6956 ft | 166 kts | 97° |
| 2026-04-23 10:45 | -33.72520 | -76.52115 | 6955 ft | 165 kts | 96° |
| 2026-04-23 10:45 | -33.72564 | -76.50745 | 6955 ft | 163 kts | 97° |
| 2026-04-23 10:46 | -33.72571 | -76.49365 | 6953 ft | 166 kts | 96° |
| 2026-04-23 10:46 | -33.72560 | -76.47984 | 6950 ft | 167 kts | 96° |
| 2026-04-23 10:46 | -33.72575 | -76.46588 | 6949 ft | 166 kts | 99° |
| 2026-04-23 10:46 | -33.72593 | -76.45674 | 6950 ft | 166 kts | 97° |
| 2026-04-23 10:47 | -33.72635 | -76.44302 | 6952 ft | 163 kts | 98° |
| 2026-04-23 10:47 | -33.72676 | -76.42938 | 6952 ft | 164 kts | 97° |
| 2026-04-23 10:47 | -33.72706 | -76.41569 | 6952 ft | 164 kts | 97° |
| 2026-04-23 10:47 | -33.72719 | -76.39751 | 6951 ft | 164 kts | 97° |
| 2026-04-23 10:48 | -33.72741 | -76.38382 | 6952 ft | 164 kts | 98° |
| 2026-04-23 10:48 | -33.72785 | -76.37019 | 6952 ft | 163 kts | 97° |
| 2026-04-23 10:48 | -33.72779 | -76.35651 | 6952 ft | 164 kts | 96° |
| 2026-04-23 10:48 | -33.72779 | -76.34728 | 6952 ft | 164 kts | 95° |
| 2026-04-23 10:49 | -33.72749 | -76.33349 | 6952 ft | 166 kts | 97° |
| 2026-04-23 10:49 | -33.72796 | -76.31974 | 6952 ft | 164 kts | 100° |
| 2026-04-23 10:49 | -33.72846 | -76.30630 | 6952 ft | 163 kts | 98° |
| 2026-04-23 10:49 | -33.72864 | -76.29268 | 6952 ft | 164 kts | 96° |
| 2026-04-23 10:50 | -33.72854 | -76.27437 | 6953 ft | 165 kts | 97° |
| 2026-04-23 10:50 | -33.72868 | -76.26523 | 6952 ft | 165 kts | 99° |
| 2026-04-23 10:50 | -33.72903 | -76.25149 | 6952 ft | 164 kts | 97° |
| 2026-04-23 10:50 | -33.72930 | -76.23778 | 6952 ft | 163 kts | 98° |
| 2026-04-23 10:51 | -33.72951 | -76.22414 | 6949 ft | 164 kts | 96° |
| 2026-04-23 10:51 | -33.72966 | -76.21037 | 6947 ft | 166 kts | 98° |
| 2026-04-23 10:51 | -33.72983 | -76.19654 | 6946 ft | 166 kts | 98° |
| 2026-04-23 10:51 | -33.72994 | -76.18280 | 6947 ft | 164 kts | 94° |
| 2026-04-23 10:52 | -33.72989 | -76.16906 | 6947 ft | 164 kts | 96° |
| 2026-04-23 10:52 | -33.73023 | -76.15538 | 6947 ft | 165 kts | 99° |
| 2026-04-23 10:52 | -33.73077 | -76.14170 | 6951 ft | 164 kts | 98° |
| 2026-04-23 10:52 | -33.73076 | -76.12797 | 6948 ft | 165 kts | 97° |
| 2026-04-23 10:53 | -33.73083 | -76.11426 | 6948 ft | 164 kts | 98° |
| 2026-04-23 10:53 | -33.73101 | -76.10057 | 6947 ft | 164 kts | 96° |
| 2026-04-23 10:53 | -33.73103 | -76.08693 | 6947 ft | 164 kts | 96° |
| 2026-04-23 10:53 | -33.73092 | -76.07325 | 6948 ft | 164 kts | 94° |
| 2026-04-23 10:54 | -33.73058 | -76.05943 | 6942 ft | 166 kts | 98° |
| 2026-04-23 10:54 | -33.73088 | -76.04573 | 6944 ft | 164 kts | 98° |
| 2026-04-23 10:54 | -33.73143 | -76.03208 | 6943 ft | 163 kts | 103° |
| 2026-04-23 10:54 | -33.73222 | -76.01855 | 6950 ft | 163 kts | 99° |
| 2026-04-23 10:55 | -33.73250 | -76.00496 | 6942 ft | 163 kts | 97° |
| 2026-04-23 10:55 | -33.73239 | -75.99128 | 6944 ft | 165 kts | 98° |
| 2026-04-23 10:55 | -33.73254 | -75.97756 | 6945 ft | 163 kts | 98° |
| 2026-04-23 10:55 | -33.73310 | -75.96396 | 6943 ft | 162 kts | 99° |
| 2026-04-23 10:56 | -33.73313 | -75.95048 | 6943 ft | 163 kts | 95° |
| 2026-04-23 10:56 | -33.73265 | -75.93679 | 6944 ft | 164 kts | 95° |
| 2026-04-23 10:56 | -33.73237 | -75.92305 | 6939 ft | 164 kts | 96° |
| 2026-04-23 10:56 | -33.73252 | -75.90933 | 6939 ft | 164 kts | 99° |
| 2026-04-23 10:57 | -33.73276 | -75.89567 | 6939 ft | 164 kts | 98° |
| 2026-04-23 10:57 | -33.73332 | -75.88205 | 6939 ft | 164 kts | 98° |
| 2026-04-23 10:57 | -33.73347 | -75.86849 | 6939 ft | 165 kts | 97° |
| 2026-04-23 10:57 | -33.73364 | -75.85453 | 6938 ft | 165 kts | 99° |
| 2026-04-23 10:58 | -33.73379 | -75.84098 | 6939 ft | 163 kts | 98° |
| 2026-04-23 10:58 | -33.73387 | -75.82728 | 6938 ft | 164 kts | 97° |
| 2026-04-23 10:58 | -33.73397 | -75.81352 | 6938 ft | 164 kts | 97° |
| 2026-04-23 10:58 | -33.73413 | -75.79978 | 6938 ft | 164 kts | 97° |
| 2026-04-23 10:59 | -33.73427 | -75.78603 | 6939 ft | 165 kts | 97° |
| 2026-04-23 10:59 | -33.73428 | -75.77231 | 6939 ft | 164 kts | 98° |
| 2026-04-23 10:59 | -33.73402 | -75.75857 | 6940 ft | 164 kts | 93° |
| 2026-04-23 10:59 | -33.73415 | -75.74489 | 6939 ft | 163 kts | 98° |
| 2026-04-23 11:00 | -33.73452 | -75.73123 | 6938 ft | 162 kts | 96° |
| 2026-04-23 11:00 | -33.73426 | -75.71752 | 6941 ft | 165 kts | 98° |
| 2026-04-23 11:00 | -33.73472 | -75.70382 | 6941 ft | 163 kts | 99° |
| 2026-04-23 11:00 | -33.73516 | -75.69019 | 6940 ft | 163 kts | 99° |
| 2026-04-23 11:01 | -33.73548 | -75.67659 | 6940 ft | 164 kts | 97° |
| 2026-04-23 11:01 | -33.73560 | -75.66290 | 6940 ft | 164 kts | 96° |
| 2026-04-23 11:01 | -33.73533 | -75.64910 | 6939 ft | 166 kts | 97° |
| 2026-04-23 11:01 | -33.73532 | -75.63533 | 6934 ft | 164 kts | 96° |
| 2026-04-23 11:02 | -33.73526 | -75.62172 | 6937 ft | 164 kts | 98° |
| 2026-04-23 11:02 | -33.73573 | -75.60802 | 6936 ft | 163 kts | 98° |
| 2026-04-23 11:02 | -33.73609 | -75.59436 | 6934 ft | 164 kts | 98° |
| 2026-04-23 11:02 | -33.73588 | -75.58059 | 6936 ft | 166 kts | 99° |
| 2026-04-23 11:03 | -33.73619 | -75.56683 | 6933 ft | 164 kts | 101° |
| 2026-04-23 11:03 | -33.73673 | -75.55322 | 6931 ft | 162 kts | 98° |
| 2026-04-23 11:03 | -33.73672 | -75.53965 | 6932 ft | 163 kts | 95° |
| 2026-04-23 11:03 | -33.73612 | -75.52595 | 6934 ft | 164 kts | 95° |
| 2026-04-23 11:04 | -33.73572 | -75.51227 | 6936 ft | 164 kts | 96° |
| 2026-04-23 11:04 | -33.73585 | -75.49858 | 6937 ft | 163 kts | 99° |
| 2026-04-23 11:04 | -33.73659 | -75.48496 | 6927 ft | 162 kts | 99° |
| 2026-04-23 11:04 | -33.73704 | -75.47140 | 6927 ft | 163 kts | 97° |
| 2026-04-23 11:05 | -33.73720 | -75.45775 | 6923 ft | 163 kts | 98° |
| 2026-04-23 11:05 | -33.73743 | -75.44406 | 6924 ft | 164 kts | 97° |
| 2026-04-23 11:05 | -33.73717 | -75.43037 | 6925 ft | 163 kts | 95° |
| 2026-04-23 11:05 | -33.73683 | -75.41664 | 6928 ft | 164 kts | 96° |
| 2026-04-23 11:06 | -33.73722 | -75.38926 | 6928 ft | 163 kts | 97° |
| 2026-04-23 11:06 | -33.73716 | -75.37577 | 6927 ft | 165 kts | 97° |
| 2026-04-23 11:06 | -33.73699 | -75.36197 | 6928 ft | 164 kts | 98° |
| 2026-04-23 11:07 | -33.73675 | -75.34826 | 6929 ft | 164 kts | 95° |
| 2026-04-23 11:07 | -33.73687 | -75.33461 | 6928 ft | 164 kts | 99° |
| 2026-04-23 11:07 | -33.73728 | -75.32091 | 6927 ft | 164 kts | 100° |
| 2026-04-23 11:07 | -33.73737 | -75.30716 | 6927 ft | 165 kts | 98° |
| 2026-04-23 11:08 | -33.73751 | -75.29339 | 6925 ft | 164 kts | 99° |
| 2026-04-23 11:08 | -33.73761 | -75.27975 | 6928 ft | 164 kts | 96° |
| 2026-04-23 11:08 | -33.73802 | -75.26617 | 6928 ft | 162 kts | 99° |
| 2026-04-23 11:08 | -33.73837 | -75.25248 | 6927 ft | 164 kts | 98° |
| 2026-04-23 11:09 | -33.73815 | -75.23875 | 6928 ft | 166 kts | 97° |
| 2026-04-23 11:09 | -33.73823 | -75.22500 | 6928 ft | 163 kts | 99° |
| 2026-04-23 11:09 | -33.73812 | -75.21139 | 6928 ft | 164 kts | 96° |
| 2026-04-23 11:09 | -33.73828 | -75.19769 | 6925 ft | 163 kts | 97° |
| 2026-04-23 11:10 | -33.73838 | -75.18402 | 6928 ft | 164 kts | 99° |
| 2026-04-23 11:10 | -33.73811 | -75.17033 | 6931 ft | 166 kts | 95° |
| 2026-04-23 11:10 | -33.73783 | -75.15643 | 6928 ft | 165 kts | 96° |
| 2026-04-23 11:10 | -33.73786 | -75.14264 | 6927 ft | 165 kts | 95° |
| 2026-04-23 11:11 | -33.73822 | -75.12900 | 6925 ft | 163 kts | 101° |
| 2026-04-23 11:11 | -33.73875 | -75.11541 | 6924 ft | 163 kts | 98° |
| 2026-04-23 11:11 | -33.73901 | -75.10168 | 6924 ft | 165 kts | 97° |
| 2026-04-23 11:11 | -33.73892 | -75.08788 | 6924 ft | 164 kts | 98° |
| 2026-04-23 11:12 | -33.73917 | -75.07423 | 6926 ft | 163 kts | 98° |
| 2026-04-23 11:12 | -33.73923 | -75.06069 | 6926 ft | 160 kts | 97° |
| 2026-04-23 11:12 | -33.73938 | -75.04727 | 6925 ft | 161 kts | 98° |
| 2026-04-23 11:12 | -33.73915 | -75.03383 | 6925 ft | 163 kts | 95° |
| 2026-04-23 11:13 | -33.73877 | -75.02048 | 6925 ft | 161 kts | 98° |
| 2026-04-23 11:13 | -33.73874 | -75.00706 | 6926 ft | 161 kts | 96° |
| 2026-04-23 11:13 | -33.73890 | -74.99359 | 6925 ft | 161 kts | 97° |
| 2026-04-23 11:13 | -33.73887 | -74.98010 | 6924 ft | 162 kts | 95° |
| 2026-04-23 11:14 | -33.73841 | -74.96662 | 6924 ft | 162 kts | 95° |
| 2026-04-23 11:14 | -33.73817 | -74.95306 | 6925 ft | 162 kts | 99° |
| 2026-04-23 11:14 | -33.73900 | -74.93970 | 6925 ft | 160 kts | 101° |
| 2026-04-23 11:14 | -33.73960 | -74.92639 | 6924 ft | 159 kts | 96° |
| 2026-04-23 11:15 | -33.73935 | -74.91295 | 6923 ft | 162 kts | 95° |
| 2026-04-23 11:15 | -33.73909 | -74.89952 | 6926 ft | 161 kts | 95° |
| 2026-04-23 11:15 | -33.73889 | -74.88602 | 6925 ft | 162 kts | 98° |
| 2026-04-23 11:15 | -33.73879 | -74.87259 | 6925 ft | 161 kts | 94° |
| 2026-04-23 11:16 | -33.73877 | -74.85920 | 6925 ft | 159 kts | 98° |
| 2026-04-23 11:16 | -33.73926 | -74.84585 | 6924 ft | 161 kts | 98° |
| 2026-04-23 11:16 | -33.73947 | -74.83243 | 6924 ft | 161 kts | 97° |
| 2026-04-23 11:16 | -33.73917 | -74.81904 | 6924 ft | 161 kts | 97° |
| 2026-04-23 11:17 | -33.73924 | -74.80564 | 6925 ft | 160 kts | 98° |
| 2026-04-23 11:17 | -33.73916 | -74.79226 | 6926 ft | 161 kts | 97° |
| 2026-04-23 11:17 | -33.73945 | -74.77886 | 6920 ft | 161 kts | 97° |
| 2026-04-23 11:17 | -33.73964 | -74.76543 | 6920 ft | 161 kts | 98° |
| 2026-04-23 11:18 | -33.73961 | -74.75193 | 6919 ft | 162 kts | 98° |
| 2026-04-23 11:18 | -33.73969 | -74.73847 | 6920 ft | 161 kts | 98° |
| 2026-04-23 11:18 | -33.73968 | -74.72501 | 6919 ft | 161 kts | 96° |
| 2026-04-23 11:18 | -33.73959 | -74.71150 | 6920 ft | 163 kts | 95° |
| 2026-04-23 11:19 | -33.73945 | -74.69797 | 6920 ft | 162 kts | 101° |
| 2026-04-23 11:19 | -33.73965 | -74.68454 | 6920 ft | 161 kts | 96° |
| 2026-04-23 11:19 | -33.73958 | -74.67110 | 6919 ft | 161 kts | 97° |
| 2026-04-23 11:19 | -33.73956 | -74.65787 | 6920 ft | 160 kts | 94° |
| 2026-04-23 11:20 | -33.73927 | -74.64447 | 6925 ft | 161 kts | 96° |
| 2026-04-23 11:20 | -33.73920 | -74.63099 | 6916 ft | 160 kts | 97° |
| 2026-04-23 11:20 | -33.73905 | -74.61751 | 6914 ft | 162 kts | 98° |
| 2026-04-23 11:20 | -33.73918 | -74.60406 | 6914 ft | 161 kts | 97° |
| 2026-04-23 11:21 | -33.73892 | -74.59061 | 6912 ft | 161 kts | 96° |
| 2026-04-23 11:21 | -33.73916 | -74.57720 | 6913 ft | 161 kts | 97° |
| 2026-04-23 11:21 | -33.73915 | -74.56379 | 6914 ft | 161 kts | 95° |
| 2026-04-23 11:21 | -33.73926 | -74.55030 | 6914 ft | 161 kts | 98° |
| 2026-04-23 11:22 | -33.73932 | -74.53686 | 6918 ft | 161 kts | 97° |
| 2026-04-23 11:22 | -33.73924 | -74.52341 | 6917 ft | 160 kts | 97° |
| 2026-04-23 11:22 | -33.73949 | -74.51005 | 6917 ft | 160 kts | 97° |
| 2026-04-23 11:22 | -33.73960 | -74.49662 | 6912 ft | 160 kts | 98° |
| 2026-04-23 11:23 | -33.73994 | -74.48328 | 6912 ft | 160 kts | 97° |
| 2026-04-23 11:23 | -33.73956 | -74.46991 | 6911 ft | 160 kts | 95° |
| 2026-04-23 11:23 | -33.73953 | -74.45646 | 6911 ft | 160 kts | 96° |
| 2026-04-23 11:23 | -33.73956 | -74.44316 | 6916 ft | 159 kts | 95° |
| 2026-04-23 11:24 | -33.73919 | -74.42984 | 6913 ft | 160 kts | 95° |
| 2026-04-23 11:24 | -33.73839 | -74.41646 | 6915 ft | 161 kts | 96° |
| 2026-04-23 11:24 | -33.73841 | -74.40309 | 6919 ft | 159 kts | 99° |
| 2026-04-23 11:24 | -33.73884 | -74.38981 | 6918 ft | 159 kts | 100° |
| 2026-04-23 11:25 | -33.73920 | -74.37655 | 6911 ft | 159 kts | 97° |
| 2026-04-23 11:25 | -33.73922 | -74.36321 | 6911 ft | 160 kts | 96° |
| 2026-04-23 11:25 | -33.73913 | -74.34988 | 6908 ft | 160 kts | 96° |
| 2026-04-23 11:25 | -33.73901 | -74.33651 | 6909 ft | 160 kts | 96° |
| 2026-04-23 11:26 | -33.73898 | -74.32312 | 6913 ft | 160 kts | 97° |
| 2026-04-23 11:26 | -33.73902 | -74.30978 | 6909 ft | 160 kts | 97° |
| 2026-04-23 11:26 | -33.73896 | -74.29641 | 6909 ft | 160 kts | 96° |
| 2026-04-23 11:26 | -33.73890 | -74.28324 | 6909 ft | 160 kts | 96° |
| 2026-04-23 11:27 | -33.73883 | -74.26989 | 6908 ft | 160 kts | 96° |
| 2026-04-23 11:27 | -33.73881 | -74.25651 | 6908 ft | 160 kts | 97° |
| 2026-04-23 11:27 | -33.73875 | -74.24317 | 6908 ft | 160 kts | 96° |
| 2026-04-23 11:27 | -33.73870 | -74.22980 | 6909 ft | 160 kts | 96° |
| 2026-04-23 11:28 | -33.73864 | -74.21625 | 6907 ft | 160 kts | 96° |
| 2026-04-23 11:28 | -33.73850 | -74.20299 | 6904 ft | 161 kts | 97° |
| 2026-04-23 11:28 | -33.73858 | -74.18959 | 6904 ft | 161 kts | 96° |
| 2026-04-23 11:28 | -33.73858 | -74.17622 | 6903 ft | 160 kts | 97° |
| 2026-04-23 11:29 | -33.73850 | -74.16285 | 6907 ft | 161 kts | 95° |
| 2026-04-23 11:29 | -33.73842 | -74.14946 | 6906 ft | 161 kts | 95° |
| 2026-04-23 11:29 | -33.73803 | -74.13599 | 6906 ft | 161 kts | 97° |
| 2026-04-23 11:29 | -33.73812 | -74.12259 | 6907 ft | 161 kts | 97° |
| 2026-04-23 11:30 | -33.73813 | -74.10917 | 6904 ft | 161 kts | 95° |
| 2026-04-23 11:30 | -33.73812 | -74.09579 | 6906 ft | 160 kts | 95° |
| 2026-04-23 11:30 | -33.73805 | -74.08244 | 6907 ft | 160 kts | 96° |
| 2026-04-23 11:30 | -33.73771 | -74.06902 | 6901 ft | 161 kts | 96° |
| 2026-04-23 11:31 | -33.73752 | -74.05566 | 6900 ft | 160 kts | 92° |
| 2026-04-23 11:31 | -33.73731 | -74.04228 | 6901 ft | 160 kts | 98° |
| 2026-04-23 11:31 | -33.73789 | -74.02911 | 6900 ft | 160 kts | 98° |
| 2026-04-23 11:31 | -33.73793 | -74.01561 | 6900 ft | 160 kts | 95° |
| 2026-04-23 11:32 | -33.73777 | -74.00222 | 6902 ft | 160 kts | 97° |
| 2026-04-23 11:32 | -33.73792 | -73.98898 | 6901 ft | 161 kts | 98° |
| 2026-04-23 11:32 | -33.73818 | -73.97555 | 6900 ft | 161 kts | 96° |
| 2026-04-23 11:32 | -33.73805 | -73.96216 | 6900 ft | 161 kts | 93° |
| 2026-04-23 11:33 | -33.73762 | -73.94874 | 6900 ft | 160 kts | 92° |
| 2026-04-23 11:33 | -33.73697 | -73.93532 | 6905 ft | 161 kts | 95° |
| 2026-04-23 11:33 | -33.73707 | -73.92192 | 6895 ft | 160 kts | 97° |
| 2026-04-23 11:33 | -33.73718 | -73.90856 | 6895 ft | 159 kts | 95° |
| 2026-04-23 11:34 | -33.73704 | -73.89524 | 6899 ft | 160 kts | 95° |
| 2026-04-23 11:34 | -33.73680 | -73.88185 | 6899 ft | 160 kts | 95° |
| 2026-04-23 11:34 | -33.73694 | -73.86843 | 6898 ft | 160 kts | 98° |
| 2026-04-23 11:34 | -33.73718 | -73.85507 | 6898 ft | 160 kts | 99° |
| 2026-04-23 11:35 | -33.73772 | -73.84182 | 6897 ft | 158 kts | 95° |
| 2026-04-23 11:35 | -33.73744 | -73.82853 | 6896 ft | 160 kts | 92° |
| 2026-04-23 11:35 | -33.73685 | -73.81966 | 6897 ft | 160 kts | 91° |
| 2026-04-23 11:35 | -33.73637 | -73.80624 | 6898 ft | 160 kts | 95° |
| 2026-04-23 11:36 | -33.73611 | -73.79287 | 6895 ft | 160 kts | 95° |
| 2026-04-23 11:36 | -33.73591 | -73.77947 | 6893 ft | 160 kts | 93° |
| 2026-04-23 11:36 | -33.73579 | -73.76607 | 6893 ft | 160 kts | 95° |
| 2026-04-23 11:36 | -33.73580 | -73.75264 | 6894 ft | 161 kts | 97° |
| 2026-04-23 11:37 | -33.73586 | -73.73925 | 6895 ft | 161 kts | 96° |
| 2026-04-23 11:37 | -33.73572 | -73.72578 | 6893 ft | 161 kts | 97° |
| 2026-04-23 11:37 | -33.73566 | -73.71235 | 6894 ft | 161 kts | 95° |
| 2026-04-23 11:37 | -33.73559 | -73.69891 | 6892 ft | 161 kts | 96° |
| 2026-04-23 11:38 | -33.73559 | -73.68545 | 6888 ft | 161 kts | 95° |
| 2026-04-23 11:38 | -33.73536 | -73.67205 | 6889 ft | 161 kts | 95° |
| 2026-04-23 11:38 | -33.73541 | -73.65862 | 6889 ft | 160 kts | 98° |
| 2026-04-23 11:38 | -33.73565 | -73.64523 | 6889 ft | 161 kts | 95° |
| 2026-04-23 11:39 | -33.73589 | -73.63179 | 6890 ft | 161 kts | 94° |
| 2026-04-23 11:39 | -33.73556 | -73.61826 | 6889 ft | 163 kts | 92° |
| 2026-04-23 11:39 | -33.73527 | -73.60470 | 6889 ft | 162 kts | 95° |
| 2026-04-23 11:39 | -33.73493 | -73.59132 | 6889 ft | 163 kts | 93° |
| 2026-04-23 11:40 | -33.73485 | -73.57758 | 6889 ft | 162 kts | 96° |
| 2026-04-23 11:40 | -33.73471 | -73.56432 | 6889 ft | 161 kts | 93° |
| 2026-04-23 11:40 | -33.73446 | -73.55085 | 6890 ft | 162 kts | 94° |
| 2026-04-23 11:40 | -33.73427 | -73.53733 | 6890 ft | 162 kts | 94° |
| 2026-04-23 11:41 | -33.73378 | -73.52357 | 6890 ft | 162 kts | 95° |
| 2026-04-23 11:41 | -33.73393 | -73.51026 | 6885 ft | 161 kts | 96° |
| 2026-04-23 11:41 | -33.73408 | -73.49681 | 6885 ft | 161 kts | 95° |
| 2026-04-23 11:41 | -33.73389 | -73.48335 | 6884 ft | 161 kts | 94° |
| 2026-04-23 11:42 | -33.73392 | -73.47429 | 6882 ft | 161 kts | 94° |
| 2026-04-23 11:42 | -33.73335 | -73.44188 | 6885 ft | 161 kts | 93° |
| 2026-04-23 11:42 | -33.73282 | -73.42852 | 6884 ft | 160 kts | 93° |
| 2026-04-23 11:43 | -33.73279 | -73.41509 | 6892 ft | 161 kts | 94° |
| 2026-04-23 11:43 | -33.73291 | -73.40164 | 6885 ft | 161 kts | 97° |
| 2026-04-23 11:43 | -33.73302 | -73.38814 | 6885 ft | 162 kts | 96° |
| 2026-04-23 11:43 | -33.73315 | -73.37471 | 6885 ft | 160 kts | 96° |
| 2026-04-23 11:44 | -33.73319 | -73.36134 | 6877 ft | 160 kts | 94° |
| 2026-04-23 11:44 | -33.73290 | -73.34788 | 6876 ft | 162 kts | 94° |
| 2026-04-23 11:44 | -33.73261 | -73.33439 | 6876 ft | 161 kts | 94° |
| 2026-04-23 11:44 | -33.73227 | -73.32086 | 6876 ft | 162 kts | 94° |
| 2026-04-23 11:45 | -33.73206 | -73.30736 | 6875 ft | 162 kts | 94° |
| 2026-04-23 11:45 | -33.73211 | -73.29384 | 6880 ft | 162 kts | 95° |
| 2026-04-23 11:45 | -33.73193 | -73.28031 | 6877 ft | 162 kts | 93° |
| 2026-04-23 11:45 | -33.73158 | -73.26677 | 6877 ft | 163 kts | 94° |
| 2026-04-23 11:46 | -33.73140 | -73.25316 | 6876 ft | 163 kts | 95° |
| 2026-04-23 11:46 | -33.73133 | -73.23963 | 6876 ft | 162 kts | 94° |
| 2026-04-23 11:46 | -33.73102 | -73.22610 | 6868 ft | 162 kts | 94° |
| 2026-04-23 11:46 | -33.73097 | -73.21277 | 6868 ft | 162 kts | 94° |
| 2026-04-23 11:47 | -33.73087 | -73.19922 | 6866 ft | 163 kts | 96° |
| 2026-04-23 11:47 | -33.73076 | -73.18564 | 6867 ft | 162 kts | 94° |
| 2026-04-23 11:47 | -33.73051 | -73.17211 | 6868 ft | 162 kts | 93° |
| 2026-04-23 11:47 | -33.73021 | -73.15854 | 6868 ft | 162 kts | 93° |
| 2026-04-23 11:48 | -33.73021 | -73.14499 | 6869 ft | 162 kts | 94° |
| 2026-04-23 11:48 | -33.72989 | -73.13148 | 6872 ft | 162 kts | 93° |
| 2026-04-23 11:48 | -33.72967 | -73.11793 | 6868 ft | 162 kts | 96° |
| 2026-04-23 11:48 | -33.72970 | -73.10444 | 6869 ft | 162 kts | 94° |
| 2026-04-23 11:49 | -33.72965 | -73.09090 | 6870 ft | 162 kts | 96° |
| 2026-04-23 11:49 | -33.72969 | -73.07742 | 6869 ft | 161 kts | 93° |
| 2026-04-23 11:49 | -33.72938 | -73.06389 | 6869 ft | 163 kts | 92° |
| 2026-04-23 11:49 | -33.72901 | -73.05030 | 6868 ft | 163 kts | 94° |
| 2026-04-23 11:50 | -33.72893 | -73.03678 | 6867 ft | 161 kts | 95° |
| 2026-04-23 11:50 | -33.72896 | -73.02327 | 6867 ft | 161 kts | 95° |
| 2026-04-23 11:50 | -33.72889 | -73.00979 | 6868 ft | 161 kts | 92° |
| 2026-04-23 11:50 | -33.72847 | -72.99649 | 6874 ft | 162 kts | 92° |
| 2026-04-23 11:51 | -33.72828 | -72.98279 | 6868 ft | 162 kts | 93° |
| 2026-04-23 11:51 | -33.72795 | -72.96947 | 6867 ft | 162 kts | 94° |
| 2026-04-23 11:51 | -33.72753 | -72.95592 | 6868 ft | 162 kts | 93° |
| 2026-04-23 11:51 | -33.72754 | -72.94242 | 6863 ft | 161 kts | 94° |
| 2026-04-23 11:52 | -33.72711 | -72.92895 | 6864 ft | 161 kts | 91° |
| 2026-04-23 11:52 | -33.72670 | -72.91544 | 6863 ft | 162 kts | 94° |
| 2026-04-23 11:52 | -33.72677 | -72.90198 | 6862 ft | 161 kts | 95° |
| 2026-04-23 11:52 | -33.72684 | -72.88854 | 6863 ft | 161 kts | 94° |
| 2026-04-23 11:53 | -33.72681 | -72.87505 | 6862 ft | 161 kts | 94° |
| 2026-04-23 11:53 | -33.72671 | -72.86155 | 6864 ft | 161 kts | 95° |
| 2026-04-23 11:53 | -33.72654 | -72.84806 | 6864 ft | 162 kts | 91° |
| 2026-04-23 11:53 | -33.72598 | -72.83451 | 6863 ft | 162 kts | 94° |
| 2026-04-23 11:54 | -33.72582 | -72.82101 | 6861 ft | 161 kts | 94° |
| 2026-04-23 11:54 | -33.72572 | -72.80754 | 6857 ft | 161 kts | 93° |
| 2026-04-23 11:54 | -33.72554 | -72.79401 | 6857 ft | 162 kts | 92° |
| 2026-04-23 11:54 | -33.72505 | -72.78048 | 6857 ft | 163 kts | 92° |
| 2026-04-23 11:55 | -33.72483 | -72.76692 | 6857 ft | 162 kts | 94° |
| 2026-04-23 11:55 | -33.72462 | -72.75339 | 6856 ft | 162 kts | 94° |
| 2026-04-23 11:55 | -33.72457 | -72.73995 | 6861 ft | 161 kts | 93° |
| 2026-04-23 11:55 | -33.72454 | -72.72666 | 6857 ft | 161 kts | 95° |
| 2026-04-23 11:56 | -33.72435 | -72.71318 | 6858 ft | 162 kts | 93° |
| 2026-04-23 11:56 | -33.72399 | -72.69969 | 6857 ft | 161 kts | 93° |
| 2026-04-23 11:56 | -33.72390 | -72.68623 | 6857 ft | 161 kts | 94° |
| 2026-04-23 11:56 | -33.72359 | -72.67278 | 6857 ft | 161 kts | 93° |
| 2026-04-23 11:57 | -33.72344 | -72.65930 | 6856 ft | 161 kts | 95° |
| 2026-04-23 11:57 | -33.72310 | -72.64587 | 6857 ft | 162 kts | 92° |
| 2026-04-23 11:57 | -33.72277 | -72.63239 | 6856 ft | 161 kts | 94° |
| 2026-04-23 11:57 | -33.72243 | -72.61896 | 6857 ft | 161 kts | 92° |
| 2026-04-23 11:58 | -33.72236 | -72.60548 | 6857 ft | 161 kts | 93° |
| 2026-04-23 11:58 | -33.72227 | -72.59195 | 6859 ft | 163 kts | 94° |
| 2026-04-23 11:58 | -33.72217 | -72.57831 | 6857 ft | 163 kts | 92° |
| 2026-04-23 11:58 | -33.72189 | -72.56468 | 6857 ft | 163 kts | 94° |
| 2026-04-23 11:59 | -33.72193 | -72.55111 | 6857 ft | 162 kts | 93° |
| 2026-04-23 11:59 | -33.72166 | -72.53762 | 6857 ft | 162 kts | 91° |
| 2026-04-23 11:59 | -33.72120 | -72.52423 | 6852 ft | 163 kts | 91° |
| 2026-04-23 11:59 | -33.72057 | -72.51046 | 6852 ft | 164 kts | 90° |
| 2026-04-23 12:00 | -33.72021 | -72.49700 | 6854 ft | 163 kts | 94° |
| 2026-04-23 12:00 | -33.72011 | -72.48339 | 6854 ft | 163 kts | 92° |
| 2026-04-23 12:00 | -33.71995 | -72.46983 | 6854 ft | 162 kts | 93° |
| 2026-04-23 12:00 | -33.71983 | -72.45631 | 6854 ft | 162 kts | 92° |
| 2026-04-23 12:01 | -33.71973 | -72.44281 | 6858 ft | 162 kts | 92° |
| 2026-04-23 12:01 | -33.71949 | -72.42926 | 6855 ft | 162 kts | 93° |
| 2026-04-23 12:01 | -33.71950 | -72.41577 | 6855 ft | 162 kts | 94° |
| 2026-04-23 12:01 | -33.71917 | -72.40234 | 6855 ft | 161 kts | 90° |
| 2026-04-23 12:02 | -33.71861 | -72.38886 | 6846 ft | 162 kts | 90° |
| 2026-04-23 12:02 | -33.71820 | -72.37537 | 6846 ft | 161 kts | 91° |
| 2026-04-23 12:02 | -33.71789 | -72.36184 | 6846 ft | 161 kts | 92° |
| 2026-04-23 12:02 | -33.71778 | -72.34836 | 6846 ft | 162 kts | 92° |
| 2026-04-23 12:03 | -33.71762 | -72.33490 | 6846 ft | 161 kts | 92° |
| 2026-04-23 12:03 | -33.71742 | -72.32141 | 6846 ft | 162 kts | 92° |
| 2026-04-23 12:03 | -33.71721 | -72.30788 | 6847 ft | 162 kts | 91° |
| 2026-04-23 12:03 | -33.71679 | -72.29433 | 6846 ft | 162 kts | 92° |
| 2026-04-23 12:04 | -33.71655 | -72.28080 | 6848 ft | 162 kts | 91° |
| 2026-04-23 12:04 | -33.71642 | -72.26729 | 6846 ft | 161 kts | 92° |
| 2026-04-23 12:04 | -33.71608 | -72.25382 | 6844 ft | 162 kts | 90° |
| 2026-04-23 12:04 | -33.71566 | -72.24025 | 6844 ft | 163 kts | 91° |
| 2026-04-23 12:05 | -33.71542 | -72.22659 | 6843 ft | 163 kts | 92° |
| 2026-04-23 12:05 | -33.71531 | -72.21298 | 6844 ft | 163 kts | 91° |
| 2026-04-23 12:05 | -33.71509 | -72.19943 | 6843 ft | 162 kts | 91° |
| 2026-04-23 12:05 | -33.71484 | -72.18587 | 6844 ft | 163 kts | 91° |
| 2026-04-23 12:06 | -33.71465 | -72.17228 | 6842 ft | 163 kts | 92° |
| 2026-04-23 12:06 | -33.71428 | -72.15863 | 6844 ft | 163 kts | 91° |
| 2026-04-23 12:06 | -33.71386 | -72.13160 | 6844 ft | 162 kts | 91° |
| 2026-04-23 12:07 | -33.71344 | -72.11805 | 6844 ft | 163 kts | 90° |
| 2026-04-23 12:07 | -33.71309 | -72.10446 | 6839 ft | 164 kts | 91° |
| 2026-04-23 12:07 | -33.71268 | -72.09079 | 6838 ft | 164 kts | 91° |
| 2026-04-23 12:07 | -33.71229 | -72.07716 | 6839 ft | 164 kts | 91° |
| 2026-04-23 12:08 | -33.71209 | -72.06354 | 6839 ft | 163 kts | 91° |
| 2026-04-23 12:08 | -33.71185 | -72.04989 | 6841 ft | 164 kts | 91° |
| 2026-04-23 12:08 | -33.71165 | -72.03624 | 6841 ft | 164 kts | 91° |
| 2026-04-23 12:08 | -33.71129 | -72.02252 | 6840 ft | 164 kts | 91° |
| 2026-04-23 12:09 | -33.71097 | -72.00891 | 6839 ft | 164 kts | 91° |
| 2026-04-23 12:09 | -33.71092 | -71.99533 | 6839 ft | 162 kts | 92° |
| 2026-04-23 12:09 | -33.71069 | -71.98177 | 6839 ft | 163 kts | 91° |
| 2026-04-23 12:09 | -33.71012 | -71.96820 | 6837 ft | 163 kts | 89° |
| 2026-04-23 12:10 | -33.70968 | -71.95455 | 6836 ft | 163 kts | 92° |
| 2026-04-23 12:10 | -33.70944 | -71.94095 | 6837 ft | 163 kts | 91° |
| 2026-04-23 12:10 | -33.70933 | -71.93192 | 6837 ft | 163 kts | 93° |
| 2026-04-23 12:10 | -33.70932 | -71.91835 | 6836 ft | 163 kts | 91° |
| 2026-04-23 12:11 | -33.70884 | -71.90475 | 6838 ft | 162 kts | 89° |
| 2026-04-23 12:11 | -33.70845 | -71.89125 | 6836 ft | 162 kts | 90° |
| 2026-04-23 12:11 | -33.70825 | -71.87776 | 6836 ft | 161 kts | 90° |
| 2026-04-23 12:11 | -33.70806 | -71.86429 | 6835 ft | 161 kts | 90° |
| 2026-04-23 12:12 | -33.70781 | -71.85086 | 6835 ft | 161 kts | 90° |
| 2026-04-23 12:12 | -33.70744 | -71.83741 | 6835 ft | 161 kts | 89° |
| 2026-04-23 12:12 | -33.70701 | -71.82395 | 6834 ft | 161 kts | 90° |
| 2026-04-23 12:12 | -33.70670 | -71.81047 | 6834 ft | 161 kts | 90° |
| 2026-04-23 12:13 | -33.70641 | -71.79701 | 6834 ft | 161 kts | 90° |
| 2026-04-23 12:13 | -33.70538 | -71.78369 | 6828 ft | 161 kts | 72° |
| 2026-04-23 12:13 | -33.69778 | -71.77426 | 6820 ft | 161 kts | 22° |
| 2026-04-23 12:13 | -33.68682 | -71.77441 | 6828 ft | 161 kts | 336° |
| 2026-04-23 12:14 | -33.67909 | -71.78362 | 6832 ft | 160 kts | 291° |
| 2026-04-23 12:14 | -33.67896 | -71.79651 | 6836 ft | 157 kts | 247° |
| 2026-04-23 12:14 | -33.68644 | -71.80554 | 6837 ft | 156 kts | 202° |
| 2026-04-23 12:14 | -33.69687 | -71.80544 | 6834 ft | 155 kts | 158° |
| 2026-04-23 12:15 | -33.70410 | -71.79622 | 6831 ft | 157 kts | 112° |
| 2026-04-23 12:15 | -33.70375 | -71.78337 | 6832 ft | 159 kts | 68° |
| 2026-04-23 12:15 | -33.69589 | -71.77444 | 6833 ft | 159 kts | 22° |
| 2026-04-23 12:15 | -33.68502 | -71.77443 | 6834 ft | 161 kts | 338° |
| 2026-04-23 12:16 | -33.67713 | -71.78338 | 6835 ft | 159 kts | 294° |
| 2026-04-23 12:16 | -33.67669 | -71.79625 | 6835 ft | 158 kts | 249° |
| 2026-04-23 12:16 | -33.68387 | -71.80556 | 6835 ft | 155 kts | 204° |
| 2026-04-23 12:16 | -33.69440 | -71.80582 | 6835 ft | 156 kts | 159° |
| 2026-04-23 12:17 | -33.70189 | -71.79688 | 6834 ft | 157 kts | 114° |
| 2026-04-23 12:17 | -33.70187 | -71.78399 | 6832 ft | 160 kts | 69° |
| 2026-04-23 12:17 | -33.69427 | -71.77463 | 6832 ft | 160 kts | 25° |
| 2026-04-23 12:17 | -33.68336 | -71.77416 | 6834 ft | 161 kts | 340° |
| 2026-04-23 12:18 | -33.67523 | -71.78284 | 6833 ft | 160 kts | 295° |
| 2026-04-23 12:18 | -33.67455 | -71.79571 | 6836 ft | 157 kts | 250° |
| 2026-04-23 12:18 | -33.68151 | -71.80521 | 6837 ft | 155 kts | 205° |
| 2026-04-23 12:18 | -33.69198 | -71.80583 | 6834 ft | 155 kts | 161° |
| 2026-04-23 12:19 | -33.69974 | -71.79718 | 6832 ft | 157 kts | 116° |
| 2026-04-23 12:19 | -33.70006 | -71.78429 | 6832 ft | 159 kts | 70° |
| 2026-04-23 12:19 | -33.69263 | -71.77476 | 6833 ft | 161 kts | 26° |
| 2026-04-23 12:19 | -33.68171 | -71.77401 | 6834 ft | 162 kts | 341° |
| 2026-04-23 12:20 | -33.67333 | -71.78242 | 6838 ft | 160 kts | 297° |
| 2026-04-23 12:20 | -33.67218 | -71.79527 | 6837 ft | 157 kts | 252° |
| 2026-04-23 12:20 | -33.67888 | -71.80508 | 6838 ft | 155 kts | 207° |
| 2026-04-23 12:20 | -33.68934 | -71.80603 | 6834 ft | 155 kts | 162° |
| 2026-04-23 12:21 | -33.69719 | -71.79753 | 6830 ft | 157 kts | 117° |
| 2026-04-23 12:21 | -33.69767 | -71.78469 | 6830 ft | 159 kts | 72° |
| 2026-04-23 12:21 | -33.69047 | -71.77494 | 6831 ft | 160 kts | 27° |
| 2026-04-23 12:21 | -33.67963 | -71.77387 | 6833 ft | 160 kts | 342° |
| 2026-04-23 12:22 | -33.67122 | -71.78189 | 6835 ft | 159 kts | 298° |
| 2026-04-23 12:22 | -33.66979 | -71.79467 | 6840 ft | 157 kts | 254° |
| 2026-04-23 12:22 | -33.67617 | -71.80478 | 6835 ft | 155 kts | 209° |
| 2026-04-23 12:22 | -33.68660 | -71.80619 | 6834 ft | 155 kts | 164° |
| 2026-04-23 12:23 | -33.69557 | -71.79921 | 6850 ft | 157 kts | 134° |
| 2026-04-23 12:23 | -33.70129 | -71.78805 | 6842 ft | 159 kts | 114° |
| 2026-04-23 12:23 | -33.70429 | -71.77529 | 6835 ft | 160 kts | 102° |
| 2026-04-23 12:23 | -33.70569 | -71.76203 | 6834 ft | 160 kts | 96° |
| 2026-04-23 12:24 | -33.70615 | -71.74865 | 6834 ft | 160 kts | 91° |
| 2026-04-23 12:24 | -33.70589 | -71.73524 | 6833 ft | 161 kts | 89° |
| 2026-04-23 12:24 | -33.70535 | -71.72181 | 6833 ft | 161 kts | 88° |
| 2026-04-23 12:24 | -33.70481 | -71.70837 | 6833 ft | 161 kts | 88° |
| 2026-04-23 12:25 | -33.70429 | -71.69490 | 6833 ft | 162 kts | 89° |
| 2026-04-23 12:25 | -33.70383 | -71.68143 | 6833 ft | 161 kts | 89° |
| 2026-04-23 12:25 | -33.70345 | -71.66797 | 6833 ft | 162 kts | 89° |
| 2026-04-23 12:25 | -33.70303 | -71.65451 | 6833 ft | 161 kts | 89° |
| 2026-04-23 12:26 | -33.70259 | -71.64101 | 6833 ft | 162 kts | 90° |
| 2026-04-23 12:26 | -33.70228 | -71.62753 | 6833 ft | 161 kts | 89° |
| 2026-04-23 12:26 | -33.70196 | -71.61407 | 6833 ft | 161 kts | 90° |
| 2026-04-23 12:26 | -33.70151 | -71.60061 | 6833 ft | 162 kts | 88° |
| 2026-04-23 12:27 | -33.70061 | -71.58717 | 6831 ft | 161 kts | 85° |
| 2026-04-23 12:27 | -33.69948 | -71.57372 | 6831 ft | 162 kts | 86° |
| 2026-04-23 12:27 | -33.69842 | -71.56028 | 6834 ft | 162 kts | 85° |
| 2026-04-23 12:27 | -33.69745 | -71.54691 | 6831 ft | 160 kts | 85° |
| 2026-04-23 12:28 | -33.69646 | -71.53362 | 6832 ft | 160 kts | 84° |
| 2026-04-23 12:28 | -33.69536 | -71.52035 | 6836 ft | 160 kts | 84° |
| 2026-04-23 12:28 | -33.69425 | -71.50709 | 6832 ft | 160 kts | 84° |
| 2026-04-23 12:28 | -33.69318 | -71.49381 | 6839 ft | 160 kts | 84° |
| 2026-04-23 12:29 | -33.69214 | -71.48053 | 6832 ft | 160 kts | 84° |
| 2026-04-23 12:29 | -33.69112 | -71.46727 | 6833 ft | 160 kts | 84° |
| 2026-04-23 12:29 | -33.69008 | -71.45399 | 6834 ft | 160 kts | 84° |
| 2026-04-23 12:29 | -33.68905 | -71.44071 | 6835 ft | 160 kts | 84° |
| 2026-04-23 12:30 | -33.68802 | -71.42745 | 6835 ft | 160 kts | 84° |
| 2026-04-23 12:30 | -33.68699 | -71.41417 | 6841 ft | 160 kts | 84° |
| 2026-04-23 12:30 | -33.68598 | -71.40106 | 6839 ft | 160 kts | 84° |
| 2026-04-23 12:30 | -33.68497 | -71.38778 | 6841 ft | 160 kts | 84° |
| 2026-04-23 12:31 | -33.68397 | -71.37449 | 6838 ft | 160 kts | 84° |
| 2026-04-23 12:31 | -33.68293 | -71.36119 | 6837 ft | 160 kts | 84° |
| 2026-04-23 12:31 | -33.68191 | -71.34784 | 6837 ft | 160 kts | 84° |
| 2026-04-23 12:31 | -33.68117 | -71.33453 | 6839 ft | 160 kts | 88° |
| 2026-04-23 12:32 | -33.68125 | -71.32117 | 6837 ft | 160 kts | 90° |
| 2026-04-23 12:32 | -33.68134 | -71.30782 | 6838 ft | 160 kts | 90° |
| 2026-04-23 12:32 | -33.68141 | -71.29447 | 6839 ft | 160 kts | 90° |
| 2026-04-23 12:32 | -33.68149 | -71.28111 | 6842 ft | 160 kts | 90° |
| 2026-04-23 12:33 | -33.68157 | -71.26773 | 6842 ft | 160 kts | 90° |
| 2026-04-23 12:33 | -33.68168 | -71.25437 | 6843 ft | 160 kts | 90° |
| 2026-04-23 12:33 | -33.68178 | -71.24102 | 6846 ft | 160 kts | 90° |
| 2026-04-23 12:33 | -33.68186 | -71.22763 | 6847 ft | 160 kts | 90° |
| 2026-04-23 12:34 | -33.68193 | -71.21427 | 6848 ft | 160 kts | 90° |
| 2026-04-23 12:34 | -33.68201 | -71.20091 | 6847 ft | 160 kts | 90° |
| 2026-04-23 12:34 | -33.68209 | -71.18752 | 6847 ft | 160 kts | 90° |
| 2026-04-23 12:34 | -33.68216 | -71.17415 | 6846 ft | 160 kts | 90° |
| 2026-04-23 12:35 | -33.68224 | -71.16077 | 6845 ft | 160 kts | 90° |
| 2026-04-23 12:35 | -33.68232 | -71.14757 | 6843 ft | 160 kts | 90° |
| 2026-04-23 12:35 | -33.68236 | -71.13423 | 6844 ft | 160 kts | 90° |
| 2026-04-23 12:35 | -33.68247 | -71.12087 | 6844 ft | 160 kts | 90° |
| 2026-04-23 12:36 | -33.68255 | -71.10752 | 6844 ft | 160 kts | 90° |
| 2026-04-23 12:36 | -33.68262 | -71.09416 | 6844 ft | 160 kts | 90° |
| 2026-04-23 12:36 | -33.68267 | -71.08079 | 6843 ft | 160 kts | 90° |
| 2026-04-23 12:36 | -33.68273 | -71.06744 | 6844 ft | 160 kts | 90° |
| 2026-04-23 12:37 | -33.68281 | -71.05408 | 6844 ft | 160 kts | 90° |
| 2026-04-23 12:37 | -33.68289 | -71.04074 | 6844 ft | 160 kts | 90° |
| 2026-04-23 12:37 | -33.68294 | -71.02737 | 6843 ft | 160 kts | 90° |
| 2026-04-23 12:37 | -33.68299 | -71.01399 | 6840 ft | 160 kts | 90° |
| 2026-04-23 12:38 | -33.68305 | -71.00060 | 6840 ft | 160 kts | 90° |
| 2026-04-23 12:38 | -33.68312 | -70.98727 | 6843 ft | 160 kts | 90° |
| 2026-04-23 12:38 | -33.68318 | -70.97388 | 6840 ft | 160 kts | 90° |
| 2026-04-23 12:38 | -33.68322 | -70.96068 | 6840 ft | 160 kts | 90° |
| 2026-04-23 12:39 | -33.68329 | -70.94733 | 6840 ft | 160 kts | 90° |
| 2026-04-23 12:39 | -33.68334 | -70.93397 | 6839 ft | 160 kts | 90° |
| 2026-04-23 12:39 | -33.68355 | -70.92064 | 6845 ft | 160 kts | 82° |
| 2026-04-23 12:39 | -33.67787 | -70.90954 | 6830 ft | 159 kts | 35° |
| 2026-04-23 12:40 | -33.66740 | -70.90609 | 6844 ft | 157 kts | 2° |
| 2026-04-23 12:40 | -33.65646 | -70.90573 | 6844 ft | 158 kts | 1° |
| 2026-04-23 12:40 | -33.64546 | -70.90546 | 6839 ft | 158 kts | 1° |
| 2026-04-23 12:40 | -33.63466 | -70.90527 | 6843 ft | 152 kts | 0° |
| 2026-04-23 12:41 | -33.62407 | -70.90511 | 6713 ft | 155 kts | 1° |
| 2026-04-23 12:41 | -33.61318 | -70.90497 | 6595 ft | 155 kts | 0° |
| 2026-04-23 12:41 | -33.60251 | -70.90486 | 6516 ft | 153 kts | 1° |
| 2026-04-23 12:41 | -33.59173 | -70.90474 | 6364 ft | 156 kts | 1° |
| 2026-04-23 12:42 | -33.58088 | -70.90462 | 6274 ft | 155 kts | 0° |
| 2026-04-23 12:42 | -33.57011 | -70.90451 | 6159 ft | 155 kts | 1° |
| 2026-04-23 12:42 | -33.55987 | -70.90438 | 6050 ft | 156 kts | 1° |
| 2026-04-23 12:42 | -33.54852 | -70.90425 | 5923 ft | 156 kts | 1° |
| 2026-04-23 12:43 | -33.53784 | -70.90412 | 5842 ft | 155 kts | 1° |
| 2026-04-23 12:43 | -33.52701 | -70.90397 | 5736 ft | 157 kts | 0° |
| 2026-04-23 12:43 | -33.51611 | -70.90371 | 5662 ft | 156 kts | 5° |
| 2026-04-23 12:43 | -33.50533 | -70.90165 | 5566 ft | 157 kts | 10° |
| 2026-04-23 12:44 | -33.49454 | -70.89929 | 5491 ft | 157 kts | 11° |
| 2026-04-23 12:44 | -33.48379 | -70.89697 | 5403 ft | 157 kts | 11° |
| 2026-04-23 12:44 | -33.47303 | -70.89471 | 5319 ft | 157 kts | 10° |
| 2026-04-23 12:44 | -33.46231 | -70.89242 | 5238 ft | 156 kts | 11° |
| 2026-04-23 12:45 | -33.45159 | -70.89014 | 5152 ft | 157 kts | 11° |
| 2026-04-23 12:45 | -33.44084 | -70.88791 | 5077 ft | 157 kts | 10° |
| 2026-04-23 12:45 | -33.43012 | -70.88569 | 5004 ft | 157 kts | 11° |
| 2026-04-23 12:45 | -33.41937 | -70.88345 | 4928 ft | 157 kts | 11° |
| 2026-04-23 12:46 | -33.40860 | -70.88124 | 4856 ft | 156 kts | 11° |
| 2026-04-23 12:46 | -33.39806 | -70.87899 | 4791 ft | 151 kts | 11° |
| 2026-04-23 12:46 | -33.38769 | -70.87674 | 4717 ft | 151 kts | 11° |
| 2026-04-23 12:46 | -33.37737 | -70.87448 | 4651 ft | 151 kts | 10° |
| 2026-04-23 12:47 | -33.36706 | -70.87214 | 4582 ft | 151 kts | 15° |
| 2026-04-23 12:47 | -33.35751 | -70.86649 | 4454 ft | 154 kts | 30° |
| 2026-04-23 12:47 | -33.34849 | -70.86029 | 4486 ft | 147 kts | 30° |
| 2026-04-23 12:47 | -33.33953 | -70.85409 | 4365 ft | 150 kts | 30° |
| 2026-04-23 12:48 | -33.33048 | -70.84783 | 4233 ft | 150 kts | 30° |
| 2026-04-23 12:48 | -33.32306 | -70.83923 | 3973 ft | 155 kts | 63° |
| 2026-04-23 12:48 | -33.32152 | -70.82666 | 3635 ft | 153 kts | 100° |
| 2026-04-23 12:48 | -33.32631 | -70.81560 | 3317 ft | 150 kts | 129° |
| 2026-04-23 12:49 | -33.33349 | -70.80740 | 3150 ft | 139 kts | 147° |
| 2026-04-23 12:49 | -33.34223 | -70.80407 | 3021 ft | 122 kts | 176° |
| 2026-04-23 12:49 | -33.35004 | -70.80410 | 2961 ft | 101 kts | 181° |
| 2026-04-23 12:49 | -33.35692 | -70.80412 | 2666 ft | 92 kts | 180° |
| 2026-04-23 12:50 | -33.36329 | -70.80405 | 2314 ft | 92 kts | 179° |
| 2026-04-23 12:50 | -33.36969 | -70.80382 | 1960 ft | 91 kts | 177° |
| 2026-04-23 12:50 | -33.37591 | -70.80350 | 1672 ft | 86 kts | 178° |
| 2026-04-23 12:50 | -33.38120 | -70.80326 | 1569 ft | 63 kts | 178° |
| 2026-04-23 12:51 | -33.38470 | -70.80306 | 1567 ft | 41 kts | 177° |
| 2026-04-23 12:51 | -33.38710 | -70.80294 | 1569 ft | 32 kts | 177° |
| 2026-04-23 12:51 | -33.38923 | -70.80277 | 1568 ft | 31 kts | 178° |
| 2026-04-23 12:51 | -33.39131 | -70.80268 | 1568 ft | 30 kts | 176° |
| 2026-04-23 12:52 | -33.39325 | -70.80201 | 1566 ft | 25 kts | 150° |
| 2026-04-23 12:52 | -33.39451 | -70.80105 | 1561 ft | 18 kts | 147° |
| 2026-04-23 12:52 | -33.39547 | -70.80042 | 1560 ft | 17 kts | 174° |
| 2026-04-23 12:52 | -33.39682 | -70.80033 | 1560 ft | 21 kts | 175° |
| 2026-04-23 12:53 | -33.39836 | -70.80019 | 1561 ft | 24 kts | 177° |
| 2026-04-23 12:53 | -33.40001 | -70.80008 | 1561 ft | 23 kts | 176° |
| 2026-04-23 12:53 | -33.40158 | -70.79999 | 1561 ft | 22 kts | 177° |
| 2026-04-23 12:53 | -33.40305 | -70.79989 | 1561 ft | 20 kts | 176° |
| 2026-04-23 12:54 | -33.40440 | -70.79978 | 1561 ft | 18 kts | 176° |
| 2026-04-23 12:54 | -33.40488 | -70.79902 | 1560 ft | 11 kts | 89° |
| 2026-04-23 12:54 | -33.40485 | -70.79804 | 1559 ft | 11 kts | 87° |
| 2026-04-23 12:54 | -33.40494 | -70.79721 | 1559 ft | 10 kts | 125° |
| 2026-04-23 12:55 | -33.40551 | -70.79666 | 1559 ft | 12 kts | 163° |
| 2026-04-23 12:55 | -33.40632 | -70.79661 | 1559 ft | 13 kts | 175° |
| 2026-04-23 12:55 | -33.40693 | -70.79657 | 1559 ft | 11 kts | 191° |
| 2026-04-23 12:55 | -33.40716 | -70.79716 | 1559 ft | 9 kts | 265° |
| 2026-04-23 12:56 | -33.40719 | -70.79769 | 1559 ft | 0 kts | 268° |